Hamilton, OH

6:39 AM EDT on May 27, 2015 (GMT -0400)
Dayton-Wright Brothers | | Change Station
CLOSE
Current Station
Airport
Location: Dayton Wright,
Elevation: 961 ft
Nearby Weather Stations

Elev 961 ft 39.59 °N, 84.22 °W | Updated 46 minutes ago

Clear
Clear
66 °F
Feels Like 66 °F
N
8
Wind Variable Wind from SSW

Today
High -- | Low -- °F
--% Chance of Precip.
Yesterday
High -- | Low -- °F
Precip. -- in
6:15 AM 8:55 PM
Waxing Gibbous, 66% visible
Pressure 30.05 in
Visibility 6.0 miles
Clouds Few 900 ft
Scattered Clouds 1300 ft
Dew Point 65 °F
Humidity 96%
Rainfall 0.00 in
Snow Depth Not available.
UV 0 out of 12
Pollen 6.20 out of 12
Air Quality Not available.
Flu Activity Local Activity
METAR KMGY 270953Z AUTO 21007KT 6SM BR FEW009 SCT013 19/18 A3006 RMK AO2 SLP176 T01890183

More Conditions Fewer Conditions

Pressure 30.05 in
Visibility 6.0 miles
Clouds Few 900 ft
Scattered Clouds 1300 ft
Dew Point 65 °F
Humidity 96%
Rainfall 0.00 in
Snow Depth Not available.
UV 0 out of 12
Pollen 6.20 out of 12
Air Quality Not available.
Flu Activity Local Activity
METAR KMGY 270953Z AUTO 21007KT 6SM BR FEW009 SCT013 19/18 A3006 RMK AO2 SLP176 T01890183

More Conditions Fewer Conditions

10-Day Weather Forecast

Almanac

Astronomy

May. 27, 2015 Rise Set
Actual Time
Civil Twilight
Nautical Twilight
Astronomical Twilight
Moon
Length of Visible Light
Length of Day
Tomorrow will be .
, % of the Moon is Illuminated

Today's Extremes

State Highs State Lows

Community

WunderPhotos

Upload Photos

1,824,635 photos uploaded!

WunderBlogs® & News

Nearby

Air Quality

  Air Quality AQ Index Pollutant
Not available.

Snow Depth

Station Depth Elevation

Earthquake Activity

City Distance Mag. Time & Date
Minimum magnitude displayed is 2.5.

Coastal Water Temperatures

Place Temperature

Stations

Nearby Weather Stations

Station Location Temp. Windchill Dew Point Humidity Wind Precip. Elev Updated Type